Terminal Aerodrome Forecast
Issued by NWS

Current Version | Previous Version | Text Only | Print | Product List | Glossary On
Versions: 1 2 3 4 5 6 7 8 9 10 11 12 13 14 15 16 17 18 19 20 21 22 23 24 25 26 27
140
FTUS43 KGRR 110322 AAC
TAFLAN
TAF AMD
KLAN 110322Z 1103/1124 21007KT P6SM OVC045
     FM110500 22004KT 3SM -SN BR OVC015
     FM110700 15008KT 1SM -SN BR OVC012
     FM111200 15012G20KT 1SM -SN BR OVC009
     FM111500 16012G20KT 1/2SM SN FG OVC006=

USA.gov is the U.S. government's official web portal to all federal, state and local government web resources and services.